createdAt,value
2018-12-13T00:01:56.817Z,100054.51
2018-12-13T00:04:24.380Z,100052.83
2018-12-13T00:06:52.328Z,100054.72
2018-12-13T00:09:19.917Z,100050.17
2018-12-13T00:11:47.477Z,100053.22
2018-12-13T00:14:15.164Z,100057.05
2018-12-13T00:16:42.757Z,100061.80
2018-12-13T00:19:10.340Z,100061.39
2018-12-13T00:21:37.953Z,100058.84
2018-12-13T00:24:05.528Z,100057.14
2018-12-13T00:26:33.104Z,100050.83
2018-12-13T00:29:00.948Z,100062.70
2018-12-13T00:31:28.513Z,100058.27
2018-12-13T00:33:56.083Z,100058.17
2018-12-13T00:36:23.896Z,100059.73
2018-12-13T00:38:51.577Z,100058.67
2018-12-13T00:41:19.156Z,100064.47
2018-12-13T00:43:46.901Z,100063.57
2018-12-13T00:46:14.548Z,100067.92
2018-12-13T00:48:42.134Z,100061.89
2018-12-13T00:51:09.893Z,100064.38
2018-12-13T00:53:37.460Z,100066.95
2018-12-13T00:56:05.040Z,100059.75
2018-12-13T00:58:32.877Z,100065.27
2018-12-13T01:01:00.496Z,100062.60
2018-12-13T01:03:28.121Z,100054.31
2018-12-13T01:05:55.864Z,100052.24
2018-12-13T01:08:23.433Z,100059.73
2018-12-13T01:10:51.013Z,100057.57
2018-12-13T01:13:18.741Z,100061.81
2018-12-13T01:15:46.306Z,100056.98
2018-12-13T01:18:13.889Z,100048.30
2018-12-13T01:20:41.840Z,100060.44
2018-12-13T01:23:09.422Z,100056.59
2018-12-13T01:25:36.998Z,100061.40
2018-12-13T01:28:04.613Z,100055.09
2018-12-13T01:30:32.200Z,100058.06
2018-12-13T01:32:59.772Z,100056.79
2018-12-13T01:35:27.595Z,100062.48
2018-12-13T01:37:55.186Z,100057.19
2018-12-13T01:40:22.761Z,100060.72
2018-12-13T01:42:50.391Z,100065.75
2018-12-13T01:45:17.969Z,100058.85
2018-12-13T01:47:45.538Z,100065.16
2018-12-13T01:50:13.261Z,100062.59
2018-12-13T01:52:40.825Z,100066.73
2018-12-13T01:55:08.396Z,100064.63
2018-12-13T01:57:36.149Z,100064.44
2018-12-13T02:00:03.810Z,100064.05
2018-12-13T02:02:31.628Z,100060.09
2018-12-13T02:04:59.332Z,100066.45
2018-12-13T02:07:26.922Z,100065.34
2018-12-13T02:09:54.490Z,100069.94
2018-12-13T02:12:22.214Z,100067.52
2018-12-13T02:14:49.818Z,100057.56
2018-12-13T02:17:17.397Z,100058.61
2018-12-13T02:19:45.301Z,100065.38
2018-12-13T02:22:12.865Z,100059.19
2018-12-13T02:24:40.457Z,100059.98
2018-12-13T02:27:08.491Z,100057.45
2018-12-13T02:29:36.052Z,100048.89
2018-12-13T02:32:03.653Z,100055.09
2018-12-13T02:34:31.537Z,100053.70
2018-12-13T02:37:05.766Z,100052.03
2018-12-13T02:39:26.768Z,100052.03
2018-12-13T02:41:54.429Z,100052.00
2018-12-13T02:44:21.993Z,100059.65
2018-12-13T02:46:49.560Z,100056.02
2018-12-13T02:49:17.447Z,100050.53
2018-12-13T02:51:45.009Z,100054.34
2018-12-13T02:54:12.573Z,100056.25
2018-12-13T02:56:40.182Z,100064.16
2018-12-13T02:59:07.765Z,100056.91
2018-12-13T03:01:35.334Z,100060.18
2018-12-13T03:04:02.929Z,100063.75
2018-12-13T03:06:30.513Z,100067.70
2018-12-13T03:08:58.077Z,100072.02
2018-12-13T03:11:25.999Z,100070.70
2018-12-13T03:13:53.593Z,100077.03
2018-12-13T03:16:21.165Z,100065.50
2018-12-13T03:18:49.082Z,100063.42
2018-12-13T03:21:16.637Z,100063.59
2018-12-13T03:23:47.141Z,100066.83
2018-12-13T03:26:14.819Z,100067.91
2018-12-13T03:28:42.395Z,100067.39
2018-12-13T03:31:09.964Z,100077.55
2018-12-13T03:33:38.841Z,100065.95
2018-12-13T03:36:06.406Z,100066.91
2018-12-13T03:38:33.973Z,100065.00
2018-12-13T03:41:01.726Z,100065.36
2018-12-13T03:43:29.293Z,100069.42
2018-12-13T03:45:56.853Z,100063.36
2018-12-13T03:48:24.569Z,100069.02
2018-12-13T03:50:52.137Z,100067.14
2018-12-13T03:53:19.721Z,100071.70
2018-12-13T03:55:47.487Z,100068.39
2018-12-13T03:58:15.049Z,100074.97
2018-12-13T04:00:42.643Z,100078.45
2018-12-13T04:03:10.472Z,100081.98
2018-12-13T04:05:38.057Z,100087.65
2018-12-13T04:08:05.624Z,100086.45
2018-12-13T04:10:33.453Z,100081.23
2018-12-13T04:13:01.019Z,100083.95
2018-12-13T04:15:28.775Z,100075.69
2018-12-13T04:17:56.416Z,100068.27
2018-12-13T04:20:23.995Z,100080.14
2018-12-13T04:22:51.560Z,100083.09
2018-12-13T04:25:19.326Z,100086.52
2018-12-13T04:27:46.909Z,100081.89
2018-12-13T04:30:14.489Z,100080.00
2018-12-13T04:32:42.213Z,100094.95
2018-12-13T04:35:09.793Z,100106.02
2018-12-13T04:37:37.357Z,100111.92
2018-12-13T04:40:05.205Z,100111.02
2018-12-13T04:42:33.578Z,100114.63
2018-12-13T04:45:02.300Z,100120.68
2018-12-13T04:47:30.224Z,100114.13
2018-12-13T04:49:57.780Z,100119.70
2018-12-13T04:52:25.354Z,100110.28
2018-12-13T04:54:52.965Z,100117.67
2018-12-13T04:57:20.533Z,100122.05
2018-12-13T04:59:48.097Z,100119.45
2018-12-13T05:02:15.848Z,100125.48
2018-12-13T05:04:43.410Z,100124.45
2018-12-13T05:07:10.994Z,100124.73
2018-12-13T05:09:38.769Z,100121.97
2018-12-13T05:12:06.365Z,100120.78
2018-12-13T05:14:33.937Z,100112.75
2018-12-13T05:17:02.069Z,100113.44
2018-12-13T05:19:29.712Z,100112.80
2018-12-13T05:21:57.312Z,100114.16
2018-12-13T05:24:25.043Z,100115.88
2018-12-13T05:26:52.684Z,100116.62
2018-12-13T05:29:20.297Z,100118.78
2018-12-13T05:31:48.033Z,100120.54
2018-12-13T05:34:15.595Z,100118.06
2018-12-13T05:36:43.158Z,100119.47
2018-12-13T05:39:11.139Z,100120.94
2018-12-13T05:41:38.720Z,100126.45
2018-12-13T05:44:06.294Z,100137.62
2018-12-13T05:46:33.928Z,100136.94
2018-12-13T05:49:01.589Z,100144.73
2018-12-13T05:51:29.131Z,100142.50
2018-12-13T05:53:56.769Z,100143.73
2018-12-13T05:56:24.353Z,100143.17
2018-12-13T05:58:51.925Z,100139.29
2018-12-13T06:01:19.842Z,100136.48
2018-12-13T06:03:47.427Z,100135.33
2018-12-13T06:06:14.985Z,100134.93
2018-12-13T06:08:42.837Z,100134.13
2018-12-13T06:11:10.412Z,100135.44
2018-12-13T06:13:37.986Z,100136.16
2018-12-13T06:16:05.636Z,100139.17
2018-12-13T06:18:33.211Z,100136.53
2018-12-13T06:21:00.777Z,100134.80
2018-12-13T06:23:28.488Z,100138.40
2018-12-13T06:25:56.058Z,100132.36
2018-12-13T06:28:23.624Z,100134.80
2018-12-13T06:30:51.563Z,100130.91
2018-12-13T06:33:24.804Z,100130.85
2018-12-13T06:35:46.765Z,100135.81
2018-12-13T06:38:14.557Z,100131.20
2018-12-13T06:40:42.138Z,100133.61
2018-12-13T06:43:09.717Z,100134.25
2018-12-13T06:45:37.340Z,100132.29
2018-12-13T06:48:04.926Z,100135.70
2018-12-13T06:50:32.513Z,100134.09
2018-12-13T06:53:00.112Z,100135.77
2018-12-13T06:55:27.687Z,100138.45
2018-12-13T06:57:55.248Z,100139.09
2018-12-13T07:00:23.108Z,100145.75
2018-12-13T07:02:50.676Z,100142.55
2018-12-13T07:05:18.285Z,100152.28
2018-12-13T07:07:45.921Z,100147.92
2018-12-13T07:10:13.509Z,100145.98
2018-12-13T07:12:41.095Z,100147.61
2018-12-13T07:15:09.081Z,100146.19
2018-12-13T07:17:36.658Z,100144.02
2018-12-13T07:20:04.313Z,100145.75
2018-12-13T07:22:32.156Z,100143.92
2018-12-13T07:24:59.733Z,100150.29
2018-12-13T07:27:27.309Z,100146.54
2018-12-13T07:29:54.929Z,100138.45
2018-12-13T07:32:22.509Z,100132.64
2018-12-13T07:34:50.085Z,100128.27
2018-12-13T07:37:17.923Z,100135.07
2018-12-13T07:39:45.492Z,100139.75
2018-12-13T07:42:13.048Z,100141.66
2018-12-13T07:44:40.684Z,100137.36
2018-12-13T07:47:08.253Z,100137.70
2018-12-13T07:49:35.808Z,100141.80
2018-12-13T07:52:03.438Z,100136.11
2018-12-13T07:54:31.001Z,100132.30
2018-12-13T07:56:58.597Z,100139.83
2018-12-13T07:59:26.371Z,100147.90
2018-12-13T08:01:53.966Z,100151.23
2018-12-13T08:04:21.531Z,100148.09
2018-12-13T08:06:49.352Z,100152.56
2018-12-13T08:09:16.921Z,100153.95
2018-12-13T08:11:44.506Z,100152.17
2018-12-13T08:14:12.237Z,100151.78
2018-12-13T08:16:39.805Z,100140.94
2018-12-13T08:19:07.385Z,100136.11
2018-12-13T08:21:35.047Z,100137.80
2018-12-13T08:24:02.604Z,100136.64
2018-12-13T08:26:30.165Z,100135.17
2018-12-13T08:28:57.872Z,100130.54
2018-12-13T08:31:25.448Z,100129.75
2018-12-13T08:33:53.218Z,100131.02
2018-12-13T08:36:21.066Z,100124.33
2018-12-13T08:38:48.640Z,100123.11
2018-12-13T08:41:16.216Z,100125.05
2018-12-13T08:43:44.050Z,100121.99
2018-12-13T08:46:11.609Z,100118.47
2018-12-13T08:48:39.165Z,100119.73
2018-12-13T08:51:06.773Z,100117.27
2018-12-13T08:53:34.333Z,100116.42
2018-12-13T08:56:01.907Z,100113.59
2018-12-13T08:58:29.812Z,100112.19
2018-12-13T09:00:57.384Z,100104.87
2018-12-13T09:03:24.946Z,100099.87
2018-12-13T09:05:52.552Z,100101.42
2018-12-13T09:08:20.110Z,100103.88
2018-12-13T09:10:47.673Z,100098.84
2018-12-13T09:13:15.573Z,100103.09
2018-12-13T09:15:43.125Z,100093.75
2018-12-13T09:18:10.690Z,100089.38
2018-12-13T09:20:38.461Z,100088.72
2018-12-13T09:23:06.049Z,100083.93
2018-12-13T09:25:33.617Z,100082.58
2018-12-13T09:28:01.349Z,100073.57
2018-12-13T09:30:28.913Z,100079.73
2018-12-13T09:32:56.473Z,100086.79
2018-12-13T09:35:24.333Z,100074.14
2018-12-13T09:37:51.898Z,100076.27
2018-12-13T09:40:19.460Z,100068.18
2018-12-13T09:42:47.286Z,100071.80
2018-12-13T09:45:14.844Z,100066.47
2018-12-13T09:47:42.422Z,100067.02
2018-12-13T09:50:10.020Z,100060.91
2018-12-13T09:52:37.598Z,100062.83
2018-12-13T09:55:05.803Z,100063.89
2018-12-13T09:57:33.218Z,100061.03
2018-12-13T10:00:00.865Z,100050.21
2018-12-13T10:02:28.469Z,100056.38
2018-12-13T10:04:56.328Z,100050.34
2018-12-13T10:07:23.906Z,100041.77
2018-12-13T10:09:51.508Z,100045.22
2018-12-13T10:12:19.413Z,100039.93
2018-12-13T10:14:46.965Z,100035.13
2018-12-13T10:17:14.990Z,100031.55
2018-12-13T10:19:42.497Z,100025.41
2018-12-13T10:22:11.790Z,100029.16
2018-12-13T10:24:37.662Z,100026.83
2018-12-13T10:27:05.589Z,100018.14
2018-12-13T10:29:33.157Z,100023.23
2018-12-13T10:32:00.731Z,100017.98
2018-12-13T10:34:28.321Z,100014.79
2018-12-13T10:36:55.888Z,100010.42
2018-12-13T10:39:23.445Z,100010.68
2018-12-13T10:41:51.450Z,100008.61
2018-12-13T10:44:19.058Z,100004.23
2018-12-13T10:46:46.600Z,100002.48
2018-12-13T10:49:14.336Z,99994.94
2018-12-13T10:51:41.892Z,99980.03
2018-12-13T10:54:09.450Z,99981.98
2018-12-13T10:56:37.046Z,99972.03
2018-12-13T10:59:04.661Z,99972.34
2018-12-13T11:01:37.958Z,99973.79
2018-12-13T11:04:05.513Z,99966.85
2018-12-13T11:06:33.092Z,99960.67
2018-12-13T11:09:00.883Z,99961.58
2018-12-13T11:11:28.482Z,99963.80
2018-12-13T11:13:56.042Z,99956.78
2018-12-13T11:16:23.793Z,99962.61
2018-12-13T11:18:51.349Z,99956.33
2018-12-13T11:21:18.916Z,99955.70
2018-12-13T11:23:46.630Z,99959.05
2018-12-13T11:26:14.189Z,99956.26
2018-12-13T11:28:53.765Z,99950.39
2018-12-13T11:31:21.338Z,99956.01
2018-12-13T11:33:48.897Z,99947.72
2018-12-13T11:36:16.513Z,99939.16
2018-12-13T11:38:44.116Z,99944.28
2018-12-13T11:41:11.704Z,99931.13
2018-12-13T11:43:39.614Z,99933.03
2018-12-13T11:46:07.164Z,99937.43
2018-12-13T11:48:34.708Z,99930.42
2018-12-13T11:51:02.338Z,99922.63
2018-12-13T11:53:29.896Z,99929.75
2018-12-13T11:55:57.469Z,99920.60
2018-12-13T11:58:25.212Z,99920.13
2018-12-13T12:00:52.764Z,99925.16
2018-12-13T12:03:20.321Z,99916.98
2018-12-13T12:05:48.240Z,99913.96
2018-12-13T12:08:15.802Z,99916.46
2018-12-13T12:10:43.364Z,99916.33
2018-12-13T12:13:10.982Z,99913.35
2018-12-13T12:15:38.580Z,99912.70
2018-12-13T12:18:06.131Z,99905.68
2018-12-13T12:20:34.029Z,99909.99
2018-12-13T12:23:01.591Z,99910.06
2018-12-13T12:25:29.161Z,99909.73
2018-12-13T12:27:56.771Z,99910.55
2018-12-13T12:30:24.350Z,99912.17
2018-12-13T12:32:51.936Z,99912.25
2018-12-13T12:35:19.553Z,99912.48
2018-12-13T12:37:47.109Z,99908.08
2018-12-13T12:40:14.667Z,99907.84
2018-12-13T12:42:42.475Z,99909.45
2018-12-13T12:45:10.038Z,99914.97
2018-12-13T12:47:37.580Z,99917.27
2018-12-13T12:50:05.252Z,99919.39
2018-12-13T12:52:32.820Z,99917.21
2018-12-13T12:55:00.372Z,99916.52
2018-12-13T12:57:28.139Z,99918.06
2018-12-13T12:59:55.698Z,99919.25
2018-12-13T13:02:23.263Z,99920.80
2018-12-13T13:04:51.018Z,99919.45
2018-12-13T13:07:18.580Z,99927.36
2018-12-13T13:09:46.148Z,99924.48
2018-12-13T13:12:13.902Z,99914.78
2018-12-13T13:14:41.521Z,99926.66
2018-12-13T13:17:09.085Z,99927.22
2018-12-13T13:19:36.784Z,99923.73
2018-12-13T13:22:04.404Z,99924.64
2018-12-13T13:24:31.961Z,99928.90
2018-12-13T13:26:59.873Z,99929.84
2018-12-13T13:29:27.424Z,99918.59
2018-12-13T13:31:54.993Z,99928.74
2018-12-13T13:34:22.851Z,99931.80
2018-12-13T13:36:50.405Z,99935.72
2018-12-13T13:39:17.952Z,99932.18
2018-12-13T13:41:45.741Z,99929.06
2018-12-13T13:44:13.350Z,99933.42
2018-12-13T13:46:40.897Z,99933.25
2018-12-13T13:49:08.815Z,99934.45
2018-12-13T13:51:36.390Z,99936.54
2018-12-13T13:54:03.960Z,99936.67
2018-12-13T13:56:31.695Z,99935.44
2018-12-13T13:58:59.241Z,99935.73
2018-12-13T14:01:26.801Z,99939.98
2018-12-13T14:03:54.594Z,99935.47
2018-12-13T14:06:22.398Z,99939.35
2018-12-13T14:08:49.953Z,99935.70
2018-12-13T14:11:18.368Z,99940.98
2018-12-13T14:13:45.930Z,99940.09
2018-12-13T14:16:13.489Z,99938.47
2018-12-13T14:18:41.243Z,99937.47
2018-12-13T14:21:08.792Z,99934.27
2018-12-13T14:23:36.350Z,99933.88
2018-12-13T14:26:04.016Z,99925.36
2018-12-13T14:28:31.580Z,99931.39
2018-12-13T14:30:59.148Z,99932.05
2018-12-13T14:33:26.961Z,99927.77
2018-12-13T14:35:54.530Z,99926.94
2018-12-13T14:38:22.082Z,99926.23
2018-12-13T14:40:49.885Z,99927.89
2018-12-13T14:43:17.448Z,99931.80
2018-12-13T14:45:45.001Z,99930.77
2018-12-13T14:48:12.624Z,99929.85
2018-12-13T14:50:40.202Z,99937.47
2018-12-13T14:53:07.750Z,99933.72
2018-12-13T14:55:35.534Z,99936.67
2018-12-13T14:58:03.112Z,99934.11
2018-12-13T15:00:30.691Z,99937.73
2018-12-13T15:02:58.416Z,99934.48
2018-12-13T15:05:26.014Z,99940.55
2018-12-13T15:07:53.575Z,99939.69
2018-12-13T15:10:21.234Z,99946.90
2018-12-13T15:12:48.785Z,99939.28
2018-12-13T15:15:16.341Z,99936.01
2018-12-13T15:17:44.149Z,99934.98
2018-12-13T15:20:11.709Z,99935.88
2018-12-13T15:22:39.265Z,99931.96
2018-12-13T15:25:06.951Z,99924.95
2018-12-13T15:27:34.537Z,99935.66
2018-12-13T15:30:02.085Z,99931.02
2018-12-13T15:32:29.905Z,99923.08
2018-12-13T15:34:57.513Z,99915.55
2018-12-13T15:37:25.072Z,99918.38
2018-12-13T15:39:57.205Z,99924.23
2018-12-13T15:42:20.334Z,99920.72
2018-12-13T15:44:47.913Z,99924.17
2018-12-13T15:47:15.654Z,99922.30
2018-12-13T15:49:43.281Z,99922.00
2018-12-13T15:52:10.852Z,99918.23
2018-12-13T15:54:38.601Z,99918.38
2018-12-13T15:57:06.182Z,99919.11
2018-12-13T15:59:34.654Z,99920.66
2018-12-13T16:02:03.454Z,99918.64
2018-12-13T16:04:31.049Z,99924.99
2018-12-13T16:06:58.625Z,99929.66
2018-12-13T16:09:26.524Z,99928.70
2018-12-13T16:11:54.150Z,99913.41
2018-12-13T16:14:21.717Z,99915.08
2018-12-13T16:16:49.443Z,99918.38
2018-12-13T16:19:17.016Z,99920.55
2018-12-13T16:21:44.701Z,99915.70
2018-12-13T16:24:12.501Z,99913.31
2018-12-13T16:26:40.075Z,99913.86
2018-12-13T16:29:07.653Z,99917.08
2018-12-13T16:31:35.379Z,99921.94
2018-12-13T16:34:03.153Z,99926.58
2018-12-13T16:36:30.737Z,99927.61
2018-12-13T16:38:58.675Z,99931.45
2018-12-13T16:41:26.245Z,99928.83
2018-12-13T16:43:53.823Z,99934.89
2018-12-13T16:46:22.397Z,99936.28
2018-12-13T16:48:49.977Z,99941.19
2018-12-13T16:51:17.565Z,99938.69
2018-12-13T16:53:45.486Z,99937.91
2018-12-13T16:56:13.077Z,99935.84
2018-12-13T16:58:40.649Z,99931.38
2018-12-13T17:01:08.313Z,99927.97
2018-12-13T17:03:37.559Z,99930.80
2018-12-13T17:06:05.198Z,99929.14
2018-12-13T17:08:32.823Z,99931.48
2018-12-13T17:11:00.413Z,99929.80
2018-12-13T17:13:28.002Z,99925.69
2018-12-13T17:15:55.850Z,99929.03
2018-12-13T17:18:23.423Z,99928.70
2018-12-13T17:20:50.992Z,99926.67
2018-12-13T17:23:21.589Z,99920.81
2018-12-13T17:32:56.729Z,99923.14
2018-12-13T17:38:16.188Z,99918.68
2018-12-13T17:43:29.848Z,99916.64
2018-12-13T17:46:01.356Z,99920.36
2018-12-13T17:48:30.129Z,99922.98
2018-12-13T17:51:11.864Z,99923.16
2018-12-13T17:53:51.114Z,99925.23
2018-12-13T17:56:27.992Z,99925.43
2018-12-13T17:58:55.937Z,99926.78
2018-12-13T18:01:26.871Z,99931.50
2018-12-13T18:03:54.471Z,99926.91
2018-12-13T18:06:22.089Z,99928.53
2018-12-13T18:08:49.713Z,99930.04
2018-12-13T18:11:18.097Z,99924.44
2018-12-13T18:13:45.740Z,99931.89
2018-12-13T18:16:13.304Z,99926.53
2018-12-13T18:18:40.885Z,99929.20
2018-12-13T18:21:08.622Z,99925.14
2018-12-13T18:23:38.523Z,99921.36
2018-12-13T18:26:08.268Z,99923.69
2018-12-13T18:28:35.877Z,99931.08
2018-12-13T18:31:05.324Z,99922.64
2018-12-13T18:33:33.637Z,99925.02
2018-12-13T18:36:01.228Z,99927.25
2018-12-13T18:38:28.822Z,99929.54
2018-12-13T18:40:56.478Z,99933.95
2018-12-13T18:43:25.306Z,99935.06
2018-12-13T18:45:52.876Z,99933.77
2018-12-13T18:48:20.705Z,99937.25
2018-12-13T18:50:48.292Z,99933.47
2018-12-13T18:53:15.889Z,99937.14
2018-12-13T18:55:43.789Z,99944.05
2018-12-13T18:58:11.488Z,99944.09
2018-12-13T19:00:39.070Z,99953.99
2018-12-13T19:03:07.641Z,99956.13
2018-12-13T19:05:35.229Z,99954.34
2018-12-13T19:08:02.805Z,99961.62
2018-12-13T19:10:30.830Z,99957.74
2018-12-13T19:12:58.404Z,99955.04
2018-12-13T19:15:26.006Z,99952.69
2018-12-13T19:17:53.632Z,99949.75
2018-12-13T19:20:21.925Z,99951.98
2018-12-13T19:22:50.282Z,99950.70
2018-12-13T19:25:18.121Z,99954.95
2018-12-13T19:27:45.692Z,99952.86
2018-12-13T19:30:13.264Z,99957.31
2018-12-13T19:32:41.038Z,99958.34
2018-12-13T19:35:08.840Z,99957.48
2018-12-13T19:37:36.447Z,99957.09
2018-12-13T19:40:04.172Z,99955.83
2018-12-13T19:42:31.789Z,99956.69
2018-12-13T19:44:59.375Z,99958.55
2018-12-13T19:47:27.245Z,99951.46
2018-12-13T19:49:54.827Z,99951.94
2018-12-13T19:52:22.398Z,99940.85
2018-12-13T19:54:50.187Z,99937.80
2018-12-13T19:57:17.765Z,99938.31
2018-12-13T19:59:45.346Z,99937.37
2018-12-13T20:02:13.165Z,99938.13
2018-12-13T20:04:40.765Z,99931.78
2018-12-13T20:07:08.394Z,99924.41
2018-12-13T20:09:37.073Z,99929.09
2018-12-13T20:12:04.653Z,99923.19
2018-12-13T20:14:32.245Z,99919.66
2018-12-13T20:16:59.844Z,99920.81
2018-12-13T20:19:27.416Z,99920.08
2018-12-13T20:21:54.990Z,99932.66
2018-12-13T20:24:23.051Z,99937.34
2018-12-13T20:26:50.621Z,99928.12
2018-12-13T20:29:18.234Z,99926.27
2018-12-13T20:31:46.858Z,99932.39
2018-12-13T20:34:14.512Z,99922.24
2018-12-13T20:36:42.157Z,99928.27
2018-12-13T20:39:09.895Z,99917.88
2018-12-13T20:41:38.052Z,99921.21
2018-12-13T20:44:05.656Z,99924.15
2018-12-13T20:46:34.561Z,99920.25
2018-12-13T20:49:02.149Z,99917.87
2018-12-13T20:51:30.642Z,99917.20
2018-12-13T20:53:58.273Z,99934.09
2018-12-13T20:56:25.864Z,99933.94
2018-12-13T20:58:53.446Z,99932.89
2018-12-13T21:01:21.377Z,99937.83
2018-12-13T21:03:48.962Z,99942.30
2018-12-13T21:06:16.613Z,99938.13
2018-12-13T21:08:44.577Z,99942.58
2018-12-13T21:11:12.169Z,99944.48
2018-12-13T21:13:39.804Z,99956.97
2018-12-13T21:16:07.570Z,99950.67
2018-12-13T21:18:35.137Z,99949.67
2018-12-13T21:21:02.772Z,99941.59
2018-12-13T21:23:30.554Z,99949.07
2018-12-13T21:25:58.210Z,99946.02
2018-12-13T21:28:25.872Z,99946.78
2018-12-13T21:30:53.603Z,99952.59
2018-12-13T21:33:21.180Z,99955.83
2018-12-13T21:35:48.747Z,99953.00
2018-12-13T21:38:16.623Z,99948.17
2018-12-13T21:40:44.637Z,99946.95
2018-12-13T21:43:12.256Z,99952.47
2018-12-13T21:45:39.852Z,99950.30
2018-12-13T21:48:07.460Z,99950.93
2018-12-13T21:50:35.136Z,99958.62
2018-12-13T21:53:02.844Z,99967.12
2018-12-13T21:55:30.416Z,99964.29
2018-12-13T21:57:57.989Z,99963.93
2018-12-13T22:00:25.889Z,99956.53
2018-12-13T22:02:53.462Z,99961.84
2018-12-13T22:05:21.158Z,99960.05
2018-12-13T22:07:48.884Z,99956.16
2018-12-13T22:10:16.470Z,99948.66
2018-12-13T22:12:44.048Z,99952.73
2018-12-13T22:15:11.724Z,99959.36
2018-12-13T22:17:39.410Z,99961.78
2018-12-13T22:20:07.089Z,99953.94
2018-12-13T22:22:34.844Z,99956.02
2018-12-13T22:25:02.428Z,99953.36
2018-12-13T22:27:30.000Z,99950.57
2018-12-13T22:29:58.536Z,99944.33
2018-12-13T22:32:26.122Z,99948.97
2018-12-13T22:34:53.764Z,99947.76
2018-12-13T22:37:21.729Z,99946.94
2018-12-13T22:39:49.306Z,99945.54
2018-12-13T22:42:16.880Z,99947.67
2018-12-13T22:44:44.925Z,99938.20
2018-12-13T22:47:12.509Z,99939.61
2018-12-13T22:49:40.119Z,99938.98
2018-12-13T22:52:07.751Z,99940.14
2018-12-13T22:54:35.338Z,99936.84
2018-12-13T22:57:02.924Z,99942.00
2018-12-13T22:59:30.748Z,99929.95
2018-12-13T23:01:58.906Z,99925.64
2018-12-13T23:04:26.505Z,99925.70
2018-12-13T23:06:54.283Z,99914.98
2018-12-13T23:09:21.860Z,99924.87
2018-12-13T23:11:49.448Z,99921.34
2018-12-13T23:14:17.113Z,99925.37
2018-12-13T23:16:44.697Z,99925.05
2018-12-13T23:19:12.317Z,99929.57
2018-12-13T23:21:40.001Z,99923.38
2018-12-13T23:24:07.597Z,99926.91
2018-12-13T23:26:35.170Z,99925.80
2018-12-13T23:29:03.005Z,99928.22
2018-12-13T23:31:30.581Z,99931.75
2018-12-13T23:33:58.157Z,99930.47
2018-12-13T23:36:25.928Z,99921.61
2018-12-13T23:38:53.536Z,99934.28
2018-12-13T23:41:21.131Z,99937.94
2018-12-13T23:43:48.965Z,99931.28
2018-12-13T23:46:16.549Z,99926.08
2018-12-13T23:48:44.233Z,99924.89
2018-12-13T23:51:11.960Z,99912.05
2018-12-13T23:53:39.525Z,99904.73
2018-12-13T23:56:07.160Z,99902.36
2018-12-13T23:58:35.082Z,99904.41
